F/V Bugel Ar Konk — FGSH — position and weather

sailwx.info

Track history (hours):
 
Tides and Currents Weather Stations Pressure Air Temp Water Temp Dewpoint Dewpoint Depression Visibility Wind Speed Wind Dir Waves Ship Positions

F/V Bugel Ar Konk

Last reported at 2018-May-14 11:38 UTC. Time now 2018-May-27 21:22 UTC.
Position N 47°49' W 004°23'.
Warning: this ship's position is 13 days out of date.

Length 16 m.

Type: Fishing. MMSI: 228336000.

Date/timePositionNaut miles runAvg speedWind from/ knotsBaromVisibWave heightAir tempDewpointWater temp
2018-May-14 11:38N 47°49' W 004°23'0 0.0
2018-May-14 10:33N 47°49' W 004°23'0 0.0
2018-May-14 08:33N 47°49' W 004°23'12 8.5
2018-May-14 07:09N 47°56' W 004°37'210.4
2018-May-14 06:58N 47°57' W 004°39'510.3
2018-May-14 06:29N 48°01' W 004°45'511.0
2018-May-14 06:00N 48°06' W 004°47'510.3
2018-May-14 05:30N 48°11' W 004°47'510.3
2018-May-14 05:00N 48°16' W 004°47'611.1
2018-May-14 04:31N 48°22' W 004°47'0 0.1
2018-May-14 02:48N 48°22' W 004°47'0 0.0
2018-May-14 02:30N 48°22' W 004°47'0 0.0
2018-May-14 02:00N 48°22' W 004°47'0 0.8
2018-May-14 01:31N 48°21' W 004°47'2 3.8
2018-May-14 01:00N 48°20' W 004°47'2 3.6
2018-May-14 00:30N 48°21' W 004°47'0 0.1
2018-May-13 16:10N 48°22' W 004°47'0 0.1
2018-May-13 16:00N 48°22' W 004°47'0 0.0
2018-May-13 15:30N 48°22' W 004°47'0 0.0
2018-May-13 14:57N 48°22' W 004°47'0 0.0
2018-May-13 14:30N 48°22' W 004°47'0 0.0
2018-May-13 14:00N 48°22' W 004°47'0 0.0
2018-May-13 13:30N 48°22' W 004°47'3 5.8
2018-May-13 13:00N 48°19' W 004°49'510.0
2018-May-13 12:30N 48°16' W 004°55'5 9.6
2018-May-13 12:00N 48°13' W 005°00'10 9.9
2018-May-13 10:58N 48°06' W 005°12'4 4.2
2018-May-13 09:58N 48°04' W 005°17'0 0.2
2018-May-13 08:58N 48°04' W 005°17'3 2.6
2018-May-13 07:58N 48°07' W 005°17'2 1.6
2018-May-13 06:59N 48°08' W 005°17'2 1.6
2018-May-13 05:58N 48°10' W 005°17'2 2.0
2018-May-13 04:58N 48°08' W 005°19'2 2.1
2018-May-13 03:58N 48°10' W 005°18'6 4.4
2018-May-13 02:43N 48°13' W 005°11'2 8.1
2018-May-13 02:27N 48°14' W 005°08'4 8.3
2018-May-13 02:00N 48°15' W 005°03'4 8.6
2018-May-13 01:30N 48°16' W 004°56'4 8.3
2018-May-13 01:00N 48°18' W 004°51'4 7.0
2018-May-13 00:30N 48°21' W 004°48'1 0.1
2018-May-12 15:27N 48°22' W 004°47'0 0.1
2018-May-12 15:00N 48°22' W 004°47'0 0.0
2018-May-12 14:30N 48°22' W 004°47'4 7.2
2018-May-12 14:00N 48°18' W 004°49'5 9.7
2018-May-12 13:30N 48°16' W 004°56'5 9.6
2018-May-12 13:00N 48°14' W 005°02'1010.1
2018-May-12 11:58N 48°08' W 005°15'10 4.8
2018-May-12 09:48N 48°01' W 005°26'3 1.7
2018-May-12 07:58N 47°58' W 005°25'3 2.1
2018-May-12 06:43N 47°60' W 005°28'1 1.7
2018-May-12 05:58N 48°01' W 005°28'2 2.1
2018-May-12 04:53N 48°03' W 005°28'3 3.3
2018-May-12 03:58N 48°05' W 005°24'13 9.2
2018-May-12 02:33N 48°12' W 005°07'1 8.8
2018-May-12 02:27N 48°12' W 005°06'4 8.9
2018-May-12 02:00N 48°14' W 005°00'2 0.1
2018-May-11 10:51N 48°12' W 005°00'410.2
2018-May-11 10:31N 48°09' W 005°04'510.1
2018-May-11 09:58N 48°06' W 005°10'3 2.5
2018-May-11 08:58N 48°04' W 005°12'2 1.6
2018-May-11 07:58N 48°05' W 005°10'2 1.7
2018-May-11 06:58N 48°03' W 005°12'3 2.8
2018-May-11 05:59N 48°05' W 005°16'2 1.9
2018-May-11 04:58N 48°07' W 005°15'2 1.5
2018-May-11 03:58N 48°08' W 005°15'5 3.4
2018-May-11 02:37N 48°11' W 005°09'2 8.5
2018-May-11 02:23N 48°12' W 005°07'3 8.6
2018-May-11 02:00N 48°13' W 005°02'4 8.8
2018-May-11 01:30N 48°16' W 004°57'4 8.5
2018-May-11 01:00N 48°18' W 004°51'4 8.0
2018-May-11 00:30N 48°21' W 004°47'0 0.0
2018-May-10 12:28N 48°21' W 004°47'4 9.1
2018-May-10 12:01N 48°18' W 004°51'5 9.7
2018-May-10 11:30N 48°16' W 004°57'5 9.7
2018-May-10 11:00N 48°13' W 005°04'10 9.9
2018-May-10 09:58N 48°09' W 005°17'1 1.0
2018-May-10 08:58N 48°09' W 005°18'2 2.1
2018-May-10 07:58N 48°11' W 005°16'2 2.0
2018-May-10 06:58N 48°09' W 005°16'6 5.9
2018-May-10 05:53N 48°03' W 005°17'2 2.0
2018-May-10 04:58N 48°05' W 005°16'2 2.2
2018-May-10 03:58N 48°07' W 005°16'2 1.7
2018-May-10 02:58N 48°08' W 005°15'8 9.3
2018-May-10 02:08N 48°12' W 005°05'1 8.8
2018-May-10 02:00N 48°13' W 005°03'4 8.8
2018-May-10 01:31N 48°15' W 004°58'4 8.3
2018-May-10 01:01N 48°17' W 004°52'5 9.0
2018-May-10 00:30N 48°20' W 004°48'2 0.2
2018-May-09 15:09N 48°22' W 004°47'1 6.8
2018-May-09 15:00N 48°21' W 004°47'4 8.4
2018-May-09 14:30N 48°17' W 004°51'5 9.6
2018-May-09 14:00N 48°14' W 004°57'5 9.5
2018-May-09 13:31N 48°11' W 005°02'5 9.6
2018-May-09 12:58N 48°08' W 005°08'10 9.7
2018-May-09 11:58N 48°02' W 005°19'4 2.8
2018-May-09 10:33N 48°04' W 005°24'2 2.2
2018-May-09 09:33N 48°02' W 005°25'3 1.0
2018-May-09 06:58N 48°04' W 005°27'2 2.1
2018-May-09 05:48N 48°01' W 005°27'3 1.4
2018-May-09 03:53N 48°01' W 005°24'9 9.2
2018-May-09 02:53N 48°06' W 005°12'6 9.3
2018-May-09 02:17N 48°10' W 005°06'3 9.3
2018-May-09 02:00N 48°11' W 005°03'5 9.1
2018-May-09 01:30N 48°14' W 004°57'4 9.0
2018-May-09 01:00N 48°17' W 004°52'5 9.4
2018-May-09 00:30N 48°20' W 004°47'1 0.1
2018-May-08 13:11N 48°22' W 004°47'1 7.1
2018-May-08 13:00N 48°20' W 004°47'4 8.6
2018-May-08 12:30N 48°17' W 004°52'5 9.4
2018-May-08 12:00N 48°14' W 004°57'4 9.0
2018-May-08 11:30N 48°11' W 005°02'5 9.2
2018-May-08 10:58N 48°08' W 005°08'6 5.5
2018-May-08 09:58N 48°06' W 005°16'0 0.4
2018-May-08 08:58N 48°06' W 005°15'1 0.6
2018-May-08 07:59N 48°06' W 005°15'1 2.0
2018-May-08 07:15N 48°04' W 005°15'2 3.9
2018-May-08 06:50N 48°03' W 005°13'3 8.4
2018-May-08 06:29N 48°05' W 005°10'1 1.9
2018-May-08 05:53N 48°04' W 005°11'1 2.4
2018-May-08 05:30N 48°03' W 005°12'2 3.4
2018-May-08 05:00N 48°05' W 005°11'2 2.0
2018-May-08 04:07N 48°06' W 005°09'0 1.6
2018-May-08 03:59N 48°06' W 005°08'1 1.6
2018-May-08 03:28N 48°07' W 005°08'1 1.2
2018-May-08 03:00N 48°07' W 005°07'0 0.2
2018-May-08 02:29N 48°07' W 005°07'4 8.9
2018-May-08 02:00N 48°11' W 005°03'5 9.5
2018-May-08 01:30N 48°14' W 004°59'5 9.1
2018-May-08 01:00N 48°17' W 004°53'5 9.3
2018-May-08 00:30N 48°20' W 004°48'2 0.2
2018-May-07 15:34N 48°22' W 004°47'0 0.3
2018-May-07 15:31N 48°22' W 004°47'4 8.3
2018-May-07 15:00N 48°18' W 004°50'5 9.2
2018-May-07 14:30N 48°16' W 004°56'5 9.2
2018-May-07 14:00N 48°14' W 005°02'5 9.2
2018-May-07 13:30N 48°13' W 005°09'5 9.3
2018-May-07 13:00N 48°11' W 005°16'1 0.7
2018-May-07 12:13N 48°11' W 005°16'6 8.3
2018-May-07 11:28N 48°05' W 005°16'11 7.5
2018-May-07 09:58N 47°55' W 005°22'1 2.1
2018-May-07 09:20N 47°56' W 005°22'1 2.3
2018-May-07 09:00N 47°57' W 005°22'1 1.8
2018-May-07 08:30N 47°56' W 005°21'2 2.4
2018-May-07 07:43N 47°54' W 005°21'1 1.2
2018-May-07 06:59N 47°54' W 005°22'2 2.3
2018-May-07 06:07N 47°52' W 005°22'0 0.7
2018-May-07 05:58N 47°52' W 005°22'1 1.0
2018-May-07 04:43N 47°51' W 005°21'6 6.5
2018-May-07 03:48N 47°55' W 005°16'10 9.6
2018-May-07 02:43N 48°04' W 005°07'4 9.5
2018-May-07 02:19N 48°07' W 005°03'3 9.4
2018-May-07 02:00N 48°09' W 005°00'5 9.3
2018-May-07 01:30N 48°13' W 004°56'5 9.3
2018-May-07 01:00N 48°16' W 004°52'5 9.7
2018-May-07 00:31N 48°20' W 004°47'1 0.1
2018-May-06 16:07N 48°22' W 004°47'1 8.0
2018-May-06 16:00N 48°21' W 004°47'5 9.9
2018-May-06 15:30N 48°17' W 004°53'5 9.5
2018-May-06 15:00N 48°15' W 004°59'5 9.6
2018-May-06 14:30N 48°13' W 005°05'5 9.4
2018-May-06 14:00N 48°11' W 005°12'12 9.3
2018-May-06 12:43N 48°04' W 005°27'5 5.9
2018-May-06 11:53N 47°59' W 005°27'3 2.5
2018-May-06 10:49N 48°02' W 005°27'6 2.7
2018-May-06 08:43N 47°56' W 005°27'3 5.1
2018-May-06 08:13N 47°59' W 005°26'1 5.5
2018-May-06 07:58N 47°60' W 005°25'9 8.7
2018-May-06 06:59N 48°08' W 005°26'1 1.5
2018-May-06 05:58N 48°07' W 005°26'2 2.2
2018-May-06 04:58N 48°05' W 005°26'2 1.7
2018-May-06 03:54N 48°04' W 005°24'5 8.8
2018-May-06 03:20N 48°06' W 005°18'3 8.9
2018-May-06 03:00N 48°08' W 005°14'6 8.9
2018-May-06 02:19N 48°11' W 005°06'3 8.8
2018-May-06 02:00N 48°13' W 005°03'5 9.1
2018-May-06 01:30N 48°15' W 004°57'5 9.3
2018-May-06 01:00N 48°18' W 004°51'4 9.0
2018-May-06 00:30N 48°21' W 004°47'  
Track history (hours):
 
Tides and Currents Weather Stations Pressure Air Temp Water Temp Dewpoint Dewpoint Depression Visibility Wind Speed Wind Dir Waves Ship Positions

F/V Bugel Ar Konk

Last reported at 2018-May-14 11:38 UTC. Time now 2018-May-27 21:22 UTC.
Position N 47°49' W 004°23'.
Warning: this ship's position is 13 days out of date.

Length 16 m.

Type: Fishing. MMSI: 228336000.

Date/timePositionNaut miles runAvg speedWind from/ knotsBaromVisibWave heightAir tempDewpointWater temp
2018-May-14 11:38N 47°49' W 004°23'0 0.0
2018-May-14 10:33N 47°49' W 004°23'0 0.0
2018-May-14 08:33N 47°49' W 004°23'12 8.5
2018-May-14 07:09N 47°56' W 004°37'210.4
2018-May-14 06:58N 47°57' W 004°39'510.3
2018-May-14 06:29N 48°01' W 004°45'511.0
2018-May-14 06:00N 48°06' W 004°47'510.3
2018-May-14 05:30N 48°11' W 004°47'510.3
2018-May-14 05:00N 48°16' W 004°47'611.1
2018-May-14 04:31N 48°22' W 004°47'0 0.1
2018-May-14 02:48N 48°22' W 004°47'0 0.0
2018-May-14 02:30N 48°22' W 004°47'0 0.0
2018-May-14 02:00N 48°22' W 004°47'0 0.8
2018-May-14 01:31N 48°21' W 004°47'2 3.8
2018-May-14 01:00N 48°20' W 004°47'2 3.6
2018-May-14 00:30N 48°21' W 004°47'0 0.1
2018-May-13 16:10N 48°22' W 004°47'0 0.1
2018-May-13 16:00N 48°22' W 004°47'0 0.0
2018-May-13 15:30N 48°22' W 004°47'0 0.0
2018-May-13 14:57N 48°22' W 004°47'0 0.0
2018-May-13 14:30N 48°22' W 004°47'0 0.0
2018-May-13 14:00N 48°22' W 004°47'0 0.0
2018-May-13 13:30N 48°22' W 004°47'3 5.8
2018-May-13 13:00N 48°19' W 004°49'510.0
2018-May-13 12:30N 48°16' W 004°55'5 9.6
2018-May-13 12:00N 48°13' W 005°00'10 9.9
2018-May-13 10:58N 48°06' W 005°12'4 4.2
2018-May-13 09:58N 48°04' W 005°17'0 0.2
2018-May-13 08:58N 48°04' W 005°17'3 2.6
2018-May-13 07:58N 48°07' W 005°17'2 1.6
2018-May-13 06:59N 48°08' W 005°17'2 1.6
2018-May-13 05:58N 48°10' W 005°17'2 2.0
2018-May-13 04:58N 48°08' W 005°19'2 2.1
2018-May-13 03:58N 48°10' W 005°18'6 4.4
2018-May-13 02:43N 48°13' W 005°11'2 8.1
2018-May-13 02:27N 48°14' W 005°08'4 8.3
2018-May-13 02:00N 48°15' W 005°03'4 8.6
2018-May-13 01:30N 48°16' W 004°56'4 8.3
2018-May-13 01:00N 48°18' W 004°51'4 7.0
2018-May-13 00:30N 48°21' W 004°48'1 0.1
2018-May-12 15:27N 48°22' W 004°47'0 0.1
2018-May-12 15:00N 48°22' W 004°47'0 0.0
2018-May-12 14:30N 48°22' W 004°47'4 7.2
2018-May-12 14:00N 48°18' W 004°49'5 9.7
2018-May-12 13:30N 48°16' W 004°56'5 9.6
2018-May-12 13:00N 48°14' W 005°02'1010.1
2018-May-12 11:58N 48°08' W 005°15'10 4.8
2018-May-12 09:48N 48°01' W 005°26'3 1.7
2018-May-12 07:58N 47°58' W 005°25'3 2.1
2018-May-12 06:43N 47°60' W 005°28'1 1.7
2018-May-12 05:58N 48°01' W 005°28'2 2.1
2018-May-12 04:53N 48°03' W 005°28'3 3.3
2018-May-12 03:58N 48°05' W 005°24'13 9.2
2018-May-12 02:33N 48°12' W 005°07'1 8.8
2018-May-12 02:27N 48°12' W 005°06'4 8.9
2018-May-12 02:00N 48°14' W 005°00'2 0.1
2018-May-11 10:51N 48°12' W 005°00'410.2
2018-May-11 10:31N 48°09' W 005°04'510.1
2018-May-11 09:58N 48°06' W 005°10'3 2.5
2018-May-11 08:58N 48°04' W 005°12'2 1.6
2018-May-11 07:58N 48°05' W 005°10'2 1.7
2018-May-11 06:58N 48°03' W 005°12'3 2.8
2018-May-11 05:59N 48°05' W 005°16'2 1.9
2018-May-11 04:58N 48°07' W 005°15'2 1.5
2018-May-11 03:58N 48°08' W 005°15'5 3.4
2018-May-11 02:37N 48°11' W 005°09'2 8.5
2018-May-11 02:23N 48°12' W 005°07'3 8.6
2018-May-11 02:00N 48°13' W 005°02'4 8.8
2018-May-11 01:30N 48°16' W 004°57'4 8.5
2018-May-11 01:00N 48°18' W 004°51'4 8.0
2018-May-11 00:30N 48°21' W 004°47'0 0.0
2018-May-10 12:28N 48°21' W 004°47'4 9.1
2018-May-10 12:01N 48°18' W 004°51'5 9.7
2018-May-10 11:30N 48°16' W 004°57'5 9.7
2018-May-10 11:00N 48°13' W 005°04'10 9.9
2018-May-10 09:58N 48°09' W 005°17'1 1.0
2018-May-10 08:58N 48°09' W 005°18'2 2.1
2018-May-10 07:58N 48°11' W 005°16'2 2.0
2018-May-10 06:58N 48°09' W 005°16'6 5.9
2018-May-10 05:53N 48°03' W 005°17'2 2.0
2018-May-10 04:58N 48°05' W 005°16'2 2.2
2018-May-10 03:58N 48°07' W 005°16'2 1.7
2018-May-10 02:58N 48°08' W 005°15'8 9.3
2018-May-10 02:08N 48°12' W 005°05'1 8.8
2018-May-10 02:00N 48°13' W 005°03'4 8.8
2018-May-10 01:31N 48°15' W 004°58'4 8.3
2018-May-10 01:01N 48°17' W 004°52'5 9.0
2018-May-10 00:30N 48°20' W 004°48'2 0.2
2018-May-09 15:09N 48°22' W 004°47'1 6.8
2018-May-09 15:00N 48°21' W 004°47'4 8.4
2018-May-09 14:30N 48°17' W 004°51'5 9.6
2018-May-09 14:00N 48°14' W 004°57'5 9.5
2018-May-09 13:31N 48°11' W 005°02'5 9.6
2018-May-09 12:58N 48°08' W 005°08'10 9.7
2018-May-09 11:58N 48°02' W 005°19'4 2.8
2018-May-09 10:33N 48°04' W 005°24'2 2.2
2018-May-09 09:33N 48°02' W 005°25'3 1.0
2018-May-09 06:58N 48°04' W 005°27'2 2.1
2018-May-09 05:48N 48°01' W 005°27'3 1.4
2018-May-09 03:53N 48°01' W 005°24'9 9.2
2018-May-09 02:53N 48°06' W 005°12'6 9.3
2018-May-09 02:17N 48°10' W 005°06'3 9.3
2018-May-09 02:00N 48°11' W 005°03'5 9.1
2018-May-09 01:30N 48°14' W 004°57'4 9.0
2018-May-09 01:00N 48°17' W 004°52'5 9.4
2018-May-09 00:30N 48°20' W 004°47'1 0.1
2018-May-08 13:11N 48°22' W 004°47'1 7.1
2018-May-08 13:00N 48°20' W 004°47'4 8.6
2018-May-08 12:30N 48°17' W 004°52'5 9.4
2018-May-08 12:00N 48°14' W 004°57'4 9.0
2018-May-08 11:30N 48°11' W 005°02'5 9.2
2018-May-08 10:58N 48°08' W 005°08'6 5.5
2018-May-08 09:58N 48°06' W 005°16'0 0.4
2018-May-08 08:58N 48°06' W 005°15'1 0.6
2018-May-08 07:59N 48°06' W 005°15'1 2.0
2018-May-08 07:15N 48°04' W 005°15'2 3.9
2018-May-08 06:50N 48°03' W 005°13'3 8.4
2018-May-08 06:29N 48°05' W 005°10'1 1.9
2018-May-08 05:53N 48°04' W 005°11'1 2.4
2018-May-08 05:30N 48°03' W 005°12'2 3.4
2018-May-08 05:00N 48°05' W 005°11'2 2.0
2018-May-08 04:07N 48°06' W 005°09'0 1.6
2018-May-08 03:59N 48°06' W 005°08'1 1.6
2018-May-08 03:28N 48°07' W 005°08'1 1.2
2018-May-08 03:00N 48°07' W 005°07'0 0.2
2018-May-08 02:29N 48°07' W 005°07'4 8.9
2018-May-08 02:00N 48°11' W 005°03'5 9.5
2018-May-08 01:30N 48°14' W 004°59'5 9.1
2018-May-08 01:00N 48°17' W 004°53'5 9.3
2018-May-08 00:30N 48°20' W 004°48'2 0.2
2018-May-07 15:34N 48°22' W 004°47'0 0.3
2018-May-07 15:31N 48°22' W 004°47'4 8.3
2018-May-07 15:00N 48°18' W 004°50'5 9.2
2018-May-07 14:30N 48°16' W 004°56'5 9.2
2018-May-07 14:00N 48°14' W 005°02'5 9.2
2018-May-07 13:30N 48°13' W 005°09'5 9.3
2018-May-07 13:00N 48°11' W 005°16'1 0.7
2018-May-07 12:13N 48°11' W 005°16'6 8.3
2018-May-07 11:28N 48°05' W 005°16'11 7.5
2018-May-07 09:58N 47°55' W 005°22'1 2.1
2018-May-07 09:20N 47°56' W 005°22'1 2.3
2018-May-07 09:00N 47°57' W 005°22'1 1.8
2018-May-07 08:30N 47°56' W 005°21'2 2.4
2018-May-07 07:43N 47°54' W 005°21'1 1.2
2018-May-07 06:59N 47°54' W 005°22'2 2.3
2018-May-07 06:07N 47°52' W 005°22'0 0.7
2018-May-07 05:58N 47°52' W 005°22'1 1.0
2018-May-07 04:43N 47°51' W 005°21'6 6.5
2018-May-07 03:48N 47°55' W 005°16'10 9.6
2018-May-07 02:43N 48°04' W 005°07'4 9.5
2018-May-07 02:19N 48°07' W 005°03'3 9.4
2018-May-07 02:00N 48°09' W 005°00'5 9.3
2018-May-07 01:30N 48°13' W 004°56'5 9.3
2018-May-07 01:00N 48°16' W 004°52'5 9.7
2018-May-07 00:31N 48°20' W 004°47'1 0.1
2018-May-06 16:07N 48°22' W 004°47'1 8.0
2018-May-06 16:00N 48°21' W 004°47'5 9.9
2018-May-06 15:30N 48°17' W 004°53'5 9.5
2018-May-06 15:00N 48°15' W 004°59'5 9.6
2018-May-06 14:30N 48°13' W 005°05'5 9.4
2018-May-06 14:00N 48°11' W 005°12'12 9.3
2018-May-06 12:43N 48°04' W 005°27'5 5.9
2018-May-06 11:53N 47°59' W 005°27'3 2.5
2018-May-06 10:49N 48°02' W 005°27'6 2.7
2018-May-06 08:43N 47°56' W 005°27'3 5.1
2018-May-06 08:13N 47°59' W 005°26'1 5.5
2018-May-06 07:58N 47°60' W 005°25'9 8.7
2018-May-06 06:59N 48°08' W 005°26'1 1.5
2018-May-06 05:58N 48°07' W 005°26'2 2.2
2018-May-06 04:58N 48°05' W 005°26'2 1.7
2018-May-06 03:54N 48°04' W 005°24'5 8.8
2018-May-06 03:20N 48°06' W 005°18'3 8.9
2018-May-06 03:00N 48°08' W 005°14'6 8.9
2018-May-06 02:19N 48°11' W 005°06'3 8.8
2018-May-06 02:00N 48°13' W 005°03'5 9.1
2018-May-06 01:30N 48°15' W 004°57'5 9.3
2018-May-06 01:00N 48°18' W 004°51'4 9.0
2018-May-06 00:30N 48°21' W 004°47'  

Dump ship's entire track history